sensor_id;sensor_type;location;lat;lon;timestamp;pressure;altitude;pressure_sealevel;temperature;humidity
13068;BME280;6600;51.362;6.686;2023-04-08T00:00:40;101741.44;;;9.48;100.00
13068;BME280;6600;51.362;6.686;2023-04-08T00:03:06;101753.81;;;9.49;100.00
13068;BME280;6600;51.362;6.686;2023-04-08T00:05:32;101741.72;;;9.53;100.00
13068;BME280;6600;51.362;6.686;2023-04-08T00:07:58;101746.06;;;9.54;100.00
13068;BME280;6600;51.362;6.686;2023-04-08T00:10:23;101752.69;;;9.58;100.00
13068;BME280;6600;51.362;6.686;2023-04-08T00:12:50;101750.69;;;9.60;100.00
13068;BME280;6600;51.362;6.686;2023-04-08T00:15:16;101749.00;;;9.59;100.00
13068;BME280;6600;51.362;6.686;2023-04-08T00:17:41;101752.34;;;9.61;100.00
13068;BME280;6600;51.362;6.686;2023-04-08T00:20:07;101752.34;;;9.61;100.00
13068;BME280;6600;51.362;6.686;2023-04-08T00:22:32;101757.72;;;9.61;100.00
13068;BME280;6600;51.362;6.686;2023-04-08T00:24:58;101747.63;;;9.63;100.00
13068;BME280;6600;51.362;6.686;2023-04-08T00:27:23;101752.00;;;9.64;100.00
13068;BME280;6600;51.362;6.686;2023-04-08T00:29:50;101761.84;;;9.64;100.00
13068;BME280;6600;51.362;6.686;2023-04-08T00:32:15;101769.50;;;9.67;100.00
13068;BME280;6600;51.362;6.686;2023-04-08T00:34:40;101756.97;;;9.68;100.00
13068;BME280;6600;51.362;6.686;2023-04-08T00:37:06;101761.31;;;9.69;100.00
13068;BME280;6600;51.362;6.686;2023-04-08T00:39:31;101758.63;;;9.69;100.00
13068;BME280;6600;51.362;6.686;2023-04-08T00:41:56;101759.66;;;9.68;100.00
13068;BME280;6600;51.362;6.686;2023-04-08T00:44:22;101768.50;;;9.68;100.00
13068;BME280;6600;51.362;6.686;2023-04-08T00:46:47;101766.66;;;9.69;100.00
13068;BME280;6600;51.362;6.686;2023-04-08T00:49:13;101764.78;;;9.69;100.00
13068;BME280;6600;51.362;6.686;2023-04-08T00:51:38;101765.63;;;9.70;100.00
13068;BME280;6600;51.362;6.686;2023-04-08T00:54:04;101769.34;;;9.69;100.00
13068;BME280;6600;51.362;6.686;2023-04-08T00:56:31;101763.16;;;9.68;100.00
13068;BME280;6600;51.362;6.686;2023-04-08T00:58:59;101774.31;;;9.72;100.00
13068;BME280;6600;51.362;6.686;2023-04-08T01:04:16;101771.44;;;9.73;100.00
13068;BME280;6600;51.362;6.686;2023-04-08T01:07:22;101769.81;;;9.72;100.00
13068;BME280;6600;51.362;6.686;2023-04-08T01:09:53;101775.97;;;9.73;100.00
13068;BME280;6600;51.362;6.686;2023-04-08T01:12:23;101779.69;;;9.72;100.00
13068;BME280;6600;51.362;6.686;2023-04-08T01:14:56;101777.38;;;9.69;100.00
13068;BME280;6600;51.362;6.686;2023-04-08T01:17:23;101769.69;;;9.65;100.00
13068;BME280;6600;51.362;6.686;2023-04-08T01:19:49;101775.03;;;9.65;100.00
13068;BME280;6600;51.362;6.686;2023-04-08T01:22:27;101770.34;;;9.68;100.00
13068;BME280;6600;51.362;6.686;2023-04-08T01:25:04;101770.06;;;9.62;100.00
13068;BME280;6600;51.362;6.686;2023-04-08T01:27:32;101788.06;;;9.54;100.00
13068;BME280;6600;51.362;6.686;2023-04-08T01:30:00;101779.19;;;9.53;100.00
13068;BME280;6600;51.362;6.686;2023-04-08T01:32:26;101788.88;;;9.54;100.00
13068;BME280;6600;51.362;6.686;2023-04-08T01:34:53;101781.78;;;9.47;100.00
13068;BME280;6600;51.362;6.686;2023-04-08T01:37:19;101784.25;;;9.48;100.00
13068;BME280;6600;51.362;6.686;2023-04-08T01:39:47;101788.13;;;9.46;100.00
13068;BME280;6600;51.362;6.686;2023-04-08T01:42:13;101786.28;;;9.46;100.00
13068;BME280;6600;51.362;6.686;2023-04-08T01:44:40;101779.25;;;9.45;100.00
13068;BME280;6600;51.362;6.686;2023-04-08T01:47:07;101785.28;;;9.47;100.00
13068;BME280;6600;51.362;6.686;2023-04-08T01:49:33;101783.59;;;9.46;100.00
13068;BME280;6600;51.362;6.686;2023-04-08T01:52:00;101794.13;;;9.48;100.00
13068;BME280;6600;51.362;6.686;2023-04-08T01:54:26;101788.97;;;9.46;100.00
13068;BME280;6600;51.362;6.686;2023-04-08T01:56:52;101787.59;;;9.50;100.00
13068;BME280;6600;51.362;6.686;2023-04-08T01:59:20;101789.88;;;9.53;100.00
13068;BME280;6600;51.362;6.686;2023-04-08T02:01:47;101780.56;;;9.49;100.00
13068;BME280;6600;51.362;6.686;2023-04-08T02:04:14;101791.25;;;9.49;100.00
13068;BME280;6600;51.362;6.686;2023-04-08T02:06:39;101788.78;;;9.48;100.00
13068;BME280;6600;51.362;6.686;2023-04-08T02:09:05;101784.25;;;9.48;100.00
13068;BME280;6600;51.362;6.686;2023-04-08T02:11:31;101784.25;;;9.48;100.00
13068;BME280;6600;51.362;6.686;2023-04-08T02:13:57;101793.94;;;9.49;100.00
13068;BME280;6600;51.362;6.686;2023-04-08T02:16:30;101786.38;;;9.53;100.00
13068;BME280;6600;51.362;6.686;2023-04-08T02:19:01;101787.94;;;9.47;100.00
13068;BME280;6600;51.362;6.686;2023-04-08T02:21:36;101790.44;;;9.49;100.00
13068;BME280;6600;51.362;6.686;2023-04-08T02:24:05;101786.91;;;9.48;100.00
13068;BME280;6600;51.362;6.686;2023-04-08T02:26:32;101787.94;;;9.47;100.00
13068;BME280;6600;51.362;6.686;2023-04-08T02:29:01;101793.31;;;9.47;100.00
13068;BME280;6600;51.362;6.686;2023-04-08T02:31:28;101786.28;;;9.46;100.00
13068;BME280;6600;51.362;6.686;2023-04-08T02:33:54;101788.31;;;9.44;100.00
13068;BME280;6600;51.362;6.686;2023-04-08T02:36:21;101787.00;;;9.40;100.00
13068;BME280;6600;51.362;6.686;2023-04-08T02:38:49;101791.06;;;9.36;100.00
13068;BME280;6600;51.362;6.686;2023-04-08T02:41:14;101799.16;;;9.28;100.00
13068;BME280;6600;51.362;6.686;2023-04-08T02:43:41;101799.50;;;9.25;100.00
13068;BME280;6600;51.362;6.686;2023-04-08T02:46:07;101798.19;;;9.21;100.00
13068;BME280;6600;51.362;6.686;2023-04-08T02:48:33;101798.19;;;9.21;100.00
13068;BME280;6600;51.362;6.686;2023-04-08T02:50:59;101797.72;;;9.18;100.00
13068;BME280;6600;51.362;6.686;2023-04-08T02:53:24;101798.94;;;9.15;100.00
13068;BME280;6600;51.362;6.686;2023-04-08T02:55:50;101795.63;;;9.13;100.00
13068;BME280;6600;51.362;6.686;2023-04-08T02:58:15;101799.28;;;9.12;100.00
13068;BME280;6600;51.362;6.686;2023-04-08T03:00:41;101799.28;;;9.12;100.00
13068;BME280;6600;51.362;6.686;2023-04-08T03:03:06;101794.31;;;9.09;100.00
13068;BME280;6600;51.362;6.686;2023-04-08T03:05:32;101804.16;;;9.08;100.00
13068;BME280;6600;51.362;6.686;2023-04-08T03:07:57;101806.00;;;9.08;100.00
13068;BME280;6600;51.362;6.686;2023-04-08T03:10:22;101799.66;;;9.09;100.00
13068;BME280;6600;51.362;6.686;2023-04-08T03:12:48;101805.38;;;9.06;100.00
13068;BME280;6600;51.362;6.686;2023-04-08T03:15:13;101801.66;;;9.07;100.00
13068;BME280;6600;51.362;6.686;2023-04-08T03:17:38;101801.03;;;9.05;100.00
13068;BME280;6600;51.362;6.686;2023-04-08T03:20:04;101802.38;;;9.01;100.00
13068;BME280;6600;51.362;6.686;2023-04-08T03:22:31;101806.78;;;8.94;100.00
13068;BME280;6600;51.362;6.686;2023-04-08T03:24:57;101815.84;;;8.93;100.00
13068;BME280;6600;51.362;6.686;2023-04-08T03:27:22;101803.81;;;8.89;100.00
13068;BME280;6600;51.362;6.686;2023-04-08T03:29:48;101810.00;;;8.89;100.00
13068;BME280;6600;51.362;6.686;2023-04-08T03:32:13;101806.84;;;8.86;100.00
13068;BME280;6600;51.362;6.686;2023-04-08T03:34:38;101802.50;;;8.85;100.00
13068;BME280;6600;51.362;6.686;2023-04-08T03:37:04;101804.88;;;8.80;100.00
13068;BME280;6600;51.362;6.686;2023-04-08T03:39:29;101805.59;;;8.74;100.00
13068;BME280;6600;51.362;6.686;2023-04-08T03:41:55;101807.97;;;8.69;100.00
13068;BME280;6600;51.362;6.686;2023-04-08T03:44:21;101797.97;;;8.62;100.00
13068;BME280;6600;51.362;6.686;2023-04-08T03:46:46;101804.38;;;8.53;100.00
13068;BME280;6600;51.362;6.686;2023-04-08T03:49:12;101805.09;;;8.47;100.00
13068;BME280;6600;51.362;6.686;2023-04-08T03:51:37;101811.09;;;8.41;100.00
13068;BME280;6600;51.362;6.686;2023-04-08T03:54:02;101815.44;;;8.42;100.00
13068;BME280;6600;51.362;6.686;2023-04-08T03:56:28;101820.16;;;8.40;100.00
13068;BME280;6600;51.362;6.686;2023-04-08T03:58:53;101827.00;;;8.35;100.00
13068;BME280;6600;51.362;6.686;2023-04-08T04:01:18;101821.66;;;8.35;100.00
13068;BME280;6600;51.362;6.686;2023-04-08T04:03:44;101819.16;;;8.33;100.00
13068;BME280;6600;51.362;6.686;2023-04-08T04:06:09;101821.34;;;8.30;100.00
13068;BME280;6600;51.362;6.686;2023-04-08T04:08:34;101828.84;;;8.26;100.00
13068;BME280;6600;51.362;6.686;2023-04-08T04:11:00;101824.03;;;8.30;100.00
13068;BME280;6600;51.362;6.686;2023-04-08T04:13:25;101826.50;;;8.31;100.00
13068;BME280;6600;51.362;6.686;2023-04-08T04:15:51;101826.50;;;8.31;100.00
13068;BME280;6600;51.362;6.686;2023-04-08T04:18:16;101829.38;;;8.30;100.00
13068;BME280;6600;51.362;6.686;2023-04-08T04:20:42;101831.31;;;8.28;100.00
13068;BME280;6600;51.362;6.686;2023-04-08T04:23:07;101832.69;;;8.32;100.00
13068;BME280;6600;51.362;6.686;2023-04-08T04:25:33;101837.84;;;8.25;100.00
13068;BME280;6600;51.362;6.686;2023-04-08T04:27:58;101840.53;;;8.17;100.00
13068;BME280;6600;51.362;6.686;2023-04-08T04:30:24;101845.59;;;8.12;100.00
13068;BME280;6600;51.362;6.686;2023-04-08T04:32:50;101846.09;;;8.07;100.00
13068;BME280;6600;51.362;6.686;2023-04-08T04:35:15;101846.28;;;7.98;100.00
13068;BME280;6600;51.362;6.686;2023-04-08T04:37:40;101851.28;;;8.01;100.00
13068;BME280;6600;51.362;6.686;2023-04-08T04:40:06;101845.59;;;8.04;100.00
13068;BME280;6600;51.362;6.686;2023-04-08T04:42:31;101855.44;;;8.03;100.00
13068;BME280;6600;51.362;6.686;2023-04-08T04:44:57;101859.63;;;8.06;100.00
13068;BME280;6600;51.362;6.686;2023-04-08T04:47:23;101866.28;;;8.10;100.00
13068;BME280;6600;51.362;6.686;2023-04-08T04:49:48;101869.97;;;8.09;100.00
13068;BME280;6600;51.362;6.686;2023-04-08T04:52:13;101857.09;;;8.12;100.00
13068;BME280;6600;51.362;6.686;2023-04-08T04:54:39;101860.94;;;8.10;100.00
13068;BME280;6600;51.362;6.686;2023-04-08T04:57:04;101853.94;;;8.09;100.00
13068;BME280;6600;51.362;6.686;2023-04-08T04:59:30;101858.94;;;8.12;100.00
13068;BME280;6600;51.362;6.686;2023-04-08T05:01:55;101854.28;;;8.06;100.00
13068;BME280;6600;51.362;6.686;2023-04-08T05:04:23;101854.94;;;8.00;100.00
13068;BME280;6600;51.362;6.686;2023-04-08T05:06:49;101858.78;;;7.97;100.00
13068;BME280;6600;51.362;6.686;2023-04-08T05:09:15;101864.19;;;7.89;100.00
13068;BME280;6600;51.362;6.686;2023-04-08T05:11:40;101860.00;;;7.87;100.00
13068;BME280;6600;51.362;6.686;2023-04-08T05:14:06;101863.00;;;7.92;100.00
13068;BME280;6600;51.362;6.686;2023-04-08T05:16:32;101861.66;;;7.88;100.00
13068;BME280;6600;51.362;6.686;2023-04-08T05:18:57;101869.03;;;7.86;100.00
13068;BME280;6600;51.362;6.686;2023-04-08T05:21:22;101879.34;;;7.81;100.00
13068;BME280;6600;51.362;6.686;2023-04-08T05:23:48;101877.19;;;7.84;100.00
13068;BME280;6600;51.362;6.686;2023-04-08T05:26:15;101881.22;;;7.64;100.00
13068;BME280;6600;51.362;6.686;2023-04-08T05:28:40;101886.34;;;7.66;100.00
13068;BME280;6600;51.362;6.686;2023-04-08T05:31:06;101890.38;;;7.53;100.00
13068;BME280;6600;51.362;6.686;2023-04-08T05:33:31;101899.06;;;7.47;100.00
13068;BME280;6600;51.362;6.686;2023-04-08T05:35:56;101902.69;;;7.38;100.00
13068;BME280;6600;51.362;6.686;2023-04-08T05:38:22;101902.88;;;7.37;100.00
13068;BME280;6600;51.362;6.686;2023-04-08T05:40:47;101906.38;;;7.37;100.00
13068;BME280;6600;51.362;6.686;2023-04-08T05:43:12;101909.56;;;7.41;100.00
13068;BME280;6600;51.362;6.686;2023-04-08T05:45:38;101913.03;;;7.41;100.00
13068;BME280;6600;51.362;6.686;2023-04-08T05:48:03;101902.06;;;7.44;100.00
13068;BME280;6600;51.362;6.686;2023-04-08T05:50:28;101902.22;;;7.51;100.00
13068;BME280;6600;51.362;6.686;2023-04-08T05:52:53;101911.88;;;7.60;100.00
13068;BME280;6600;51.362;6.686;2023-04-08T05:55:19;101907.38;;;7.60;100.00
13068;BME280;6600;51.362;6.686;2023-04-08T05:57:44;101913.72;;;7.59;100.00
13068;BME280;6600;51.362;6.686;2023-04-08T06:00:10;101916.03;;;7.62;100.00
13068;BME280;6600;51.362;6.686;2023-04-08T06:02:35;101916.69;;;7.73;100.00
13068;BME280;6600;51.362;6.686;2023-04-08T06:05:02;101919.72;;;7.78;100.00
13068;BME280;6600;51.362;6.686;2023-04-08T06:07:28;101926.69;;;7.95;100.00
13068;BME280;6600;51.362;6.686;2023-04-08T06:09:53;101923.69;;;8.06;100.00
13068;BME280;6600;51.362;6.686;2023-04-08T06:12:19;101928.50;;;8.19;100.00
13068;BME280;6600;51.362;6.686;2023-04-08T06:14:44;101930.03;;;8.13;100.00
13068;BME280;6600;51.362;6.686;2023-04-08T06:17:10;101925.34;;;8.07;100.00
13068;BME280;6600;51.362;6.686;2023-04-08T06:19:35;101930.03;;;8.13;100.00
13068;BME280;6600;51.362;6.686;2023-04-08T06:22:00;101933.03;;;8.02;100.00
13068;BME280;6600;51.362;6.686;2023-04-08T06:24:26;101928.03;;;7.83;100.00
13068;BME280;6600;51.362;6.686;2023-04-08T06:26:53;101941.72;;;7.72;100.00
13068;BME280;6600;51.362;6.686;2023-04-08T06:29:20;101939.06;;;7.72;100.00
13068;BME280;6600;51.362;6.686;2023-04-08T06:31:46;101948.53;;;7.90;100.00
13068;BME280;6600;51.362;6.686;2023-04-08T06:34:11;101945.03;;;8.06;100.00
13068;BME280;6600;51.362;6.686;2023-04-08T06:36:36;101952.88;;;8.07;100.00
13068;BME280;6600;51.362;6.686;2023-04-08T06:39:02;101955.72;;;8.06;100.00
13068;BME280;6600;51.362;6.686;2023-04-08T06:41:28;101959.72;;;8.02;100.00
13068;BME280;6600;51.362;6.686;2023-04-08T06:43:53;101954.03;;;7.97;100.00
13068;BME280;6600;51.362;6.686;2023-04-08T06:46:18;101959.72;;;8.02;100.00
13068;BME280;6600;51.362;6.686;2023-04-08T06:48:43;101956.38;;;8.00;100.00
13068;BME280;6600;51.362;6.686;2023-04-08T06:51:09;101955.72;;;8.06;100.00
13068;BME280;6600;51.362;6.686;2023-04-08T06:53:35;101955.69;;;8.14;100.00
13068;BME280;6600;51.362;6.686;2023-04-08T06:56:00;101962.72;;;7.91;100.00
13068;BME280;6600;51.362;6.686;2023-04-08T06:58:26;101968.41;;;7.88;100.00
13068;BME280;6600;51.362;6.686;2023-04-08T07:00:53;101966.06;;;7.85;100.00
13068;BME280;6600;51.362;6.686;2023-04-08T07:03:18;101972.75;;;7.81;100.00
13068;BME280;6600;51.362;6.686;2023-04-08T07:05:44;101971.72;;;7.90;100.00
13068;BME280;6600;51.362;6.686;2023-04-08T07:08:09;101967.72;;;8.10;100.00
13068;BME280;6600;51.362;6.686;2023-04-08T07:10:35;101971.91;;;8.12;100.00
13068;BME280;6600;51.362;6.686;2023-04-08T07:13:00;101981.38;;;8.31;100.00
13068;BME280;6600;51.362;6.686;2023-04-08T07:15:26;101978.38;;;8.42;100.00
13068;BME280;6600;51.362;6.686;2023-04-08T07:17:51;101975.69;;;8.42;100.00
13068;BME280;6600;51.362;6.686;2023-04-08T07:20:16;101985.72;;;8.40;100.00
13068;BME280;6600;51.362;6.686;2023-04-08T07:22:42;101981.38;;;8.23;100.00
13068;BME280;6600;51.362;6.686;2023-04-08T07:25:07;101982.38;;;8.38;100.00
13068;BME280;6600;51.362;6.686;2023-04-08T07:27:33;101991.41;;;8.37;100.00
13068;BME280;6600;51.362;6.686;2023-04-08T07:29:59;101996.72;;;8.45;100.00
13068;BME280;6600;51.362;6.686;2023-04-08T07:32:25;101993.69;;;8.48;100.00
13068;BME280;6600;51.362;6.686;2023-04-08T07:34:50;101996.00;;;8.68;100.00
13068;BME280;6600;51.362;6.686;2023-04-08T07:37:15;101992.84;;;8.64;100.00
13068;BME280;6600;51.362;6.686;2023-04-08T07:39:42;102005.75;;;8.36;100.00
13068;BME280;6600;51.362;6.686;2023-04-08T07:42:07;102001.56;;;8.50;100.00
13068;BME280;6600;51.362;6.686;2023-04-08T07:44:32;102002.88;;;8.54;100.00
13068;BME280;6600;51.362;6.686;2023-04-08T07:46:58;102009.72;;;8.65;100.00
13068;BME280;6600;51.362;6.686;2023-04-08T07:49:23;102007.00;;;8.73;100.00
13068;BME280;6600;51.362;6.686;2023-04-08T07:51:48;102016.09;;;8.47;100.00
13068;BME280;6600;51.362;6.686;2023-04-08T07:54:14;102023.22;;;8.63;100.00
13068;BME280;6600;51.362;6.686;2023-04-08T07:56:44;102020.75;;;8.61;100.00
13068;BME280;6600;51.362;6.686;2023-04-08T07:59:10;102029.41;;;8.63;100.00
13068;BME280;6600;51.362;6.686;2023-04-08T08:01:36;102022.72;;;8.59;100.00
13068;BME280;6600;51.362;6.686;2023-04-08T08:04:01;102027.06;;;8.69;100.00
13068;BME280;6600;51.362;6.686;2023-04-08T08:06:27;102028.41;;;8.56;100.00
13068;BME280;6600;51.362;6.686;2023-04-08T08:08:52;102023.72;;;8.58;100.00
13068;BME280;6600;51.362;6.686;2023-04-08T08:11:18;102032.81;;;8.33;100.00
13068;BME280;6600;51.362;6.686;2023-04-08T08:13:43;102033.97;;;8.47;100.00
13068;BME280;6600;51.362;6.686;2023-04-08T08:16:09;102037.28;;;8.65;100.00
13068;BME280;6600;51.362;6.686;2023-04-08T08:18:36;102039.75;;;8.67;100.00
13068;BME280;6600;51.362;6.686;2023-04-08T08:21:02;102038.75;;;8.59;100.00
13068;BME280;6600;51.362;6.686;2023-04-08T08:23:27;102042.47;;;8.42;100.00
13068;BME280;6600;51.362;6.686;2023-04-08T08:26:03;102056.00;;;8.41;100.00
13068;BME280;6600;51.362;6.686;2023-04-08T08:28:30;102054.84;;;8.43;100.00
13068;BME280;6600;51.362;6.686;2023-04-08T08:30:56;102058.31;;;8.68;100.00
13068;BME280;6600;51.362;6.686;2023-04-08T08:33:21;102062.47;;;8.71;100.00
13068;BME280;6600;51.362;6.686;2023-04-08T08:35:47;102076.31;;;8.82;100.00
13068;BME280;6600;51.362;6.686;2023-04-08T08:38:12;102067.41;;;8.90;100.00
13068;BME280;6600;51.362;6.686;2023-04-08T08:40:38;102078.41;;;9.03;100.00
13068;BME280;6600;51.362;6.686;2023-04-08T08:43:04;102067.53;;;9.04;100.00
13068;BME280;6600;51.362;6.686;2023-04-08T08:45:29;102068.38;;;9.05;100.00
13068;BME280;6600;51.362;6.686;2023-04-08T08:47:55;102065.28;;;9.24;100.00
13068;BME280;6600;51.362;6.686;2023-04-08T08:50:22;102060.91;;;9.31;100.00
13068;BME280;6600;51.362;6.686;2023-04-08T08:52:48;102060.91;;;9.31;100.00
13068;BME280;6600;51.362;6.686;2023-04-08T08:55:16;102064.28;;;9.25;100.00
13068;BME280;6600;51.362;6.686;2023-04-08T08:57:41;102060.97;;;9.15;100.00
13068;BME280;6600;51.362;6.686;2023-04-08T09:00:07;102061.69;;;9.09;100.00
13068;BME280;6600;51.362;6.686;2023-04-08T09:02:33;102062.69;;;9.08;100.00
13068;BME280;6600;51.362;6.686;2023-04-08T09:05:00;102067.03;;;9.01;100.00
13068;BME280;6600;51.362;6.686;2023-04-08T09:07:28;102068.97;;;9.23;100.00
13068;BME280;6600;51.362;6.686;2023-04-08T09:09:55;102078.34;;;9.27;100.00
13068;BME280;6600;51.362;6.686;2023-04-08T09:12:21;102079.97;;;9.28;100.00
13068;BME280;6600;51.362;6.686;2023-04-08T09:14:47;102076.31;;;9.21;100.00
13068;BME280;6600;51.362;6.686;2023-04-08T09:17:13;102068.00;;;9.16;100.00
13068;BME280;6600;51.362;6.686;2023-04-08T09:19:39;102066.97;;;9.25;100.00
13068;BME280;6600;51.362;6.686;2023-04-08T09:22:09;102074.81;;;9.27;100.00
13068;BME280;6600;51.362;6.686;2023-04-08T09:24:36;102072.66;;;9.22;100.00
13068;BME280;6600;51.362;6.686;2023-04-08T09:27:02;102075.31;;;9.30;100.00
13068;BME280;6600;51.362;6.686;2023-04-08T09:29:28;102076.28;;;9.37;100.00
13068;BME280;6600;51.362;6.686;2023-04-08T09:31:55;102084.06;;;9.16;100.00
13068;BME280;6600;51.362;6.686;2023-04-08T09:34:21;102090.66;;;9.28;100.00
13068;BME280;6600;51.362;6.686;2023-04-08T09:36:51;102089.25;;;9.48;100.00
13068;BME280;6600;51.362;6.686;2023-04-08T09:39:16;102080.78;;;9.68;100.00
13068;BME280;6600;51.362;6.686;2023-04-08T09:41:42;102080.47;;;9.62;100.00
13068;BME280;6600;51.362;6.686;2023-04-08T09:44:11;102094.19;;;9.90;100.00
13068;BME280;6600;51.362;6.686;2023-04-08T09:52:06;102094.94;;;10.30;100.00
13068;BME280;6600;51.362;6.686;2023-04-08T09:54:54;102097.91;;;10.35;100.00
13068;BME280;6600;51.362;6.686;2023-04-08T10:00:01;102102.50;;;10.26;100.00
13068;BME280;6600;51.362;6.686;2023-04-08T10:02:29;102094.69;;;10.39;100.00
13068;BME280;6600;51.362;6.686;2023-04-08T10:04:59;102097.06;;;10.72;100.00
13068;BME280;6600;51.362;6.686;2023-04-08T10:07:28;102096.06;;;11.02;100.00
13068;BME280;6600;51.362;6.686;2023-04-08T10:09:53;102097.28;;;10.99;100.00
13068;BME280;6600;51.362;6.686;2023-04-08T10:12:19;102093.66;;;10.78;99.46
13068;BME280;6600;51.362;6.686;2023-04-08T10:17:54;102095.59;;;11.42;98.86
13068;BME280;6600;51.362;6.686;2023-04-08T10:20:40;102096.66;;;11.62;99.09
13068;BME280;6600;51.362;6.686;2023-04-08T10:23:16;102090.81;;;11.74;96.61
13068;BME280;6600;51.362;6.686;2023-04-08T10:25:47;102088.88;;;11.82;95.76
13068;BME280;6600;51.362;6.686;2023-04-08T10:30:54;102085.06;;;11.77;94.69
13068;BME280;6600;51.362;6.686;2023-04-08T10:33:30;102096.22;;;11.95;95.27
13068;BME280;6600;51.362;6.686;2023-04-08T10:38:36;102084.47;;;11.96;94.03
13068;BME280;6600;51.362;6.686;2023-04-08T10:41:02;102086.78;;;12.20;94.02
13068;BME280;6600;51.362;6.686;2023-04-08T10:43:32;102088.28;;;12.08;93.36
13068;BME280;6600;51.362;6.686;2023-04-08T10:45:57;102087.41;;;12.01;93.43
13068;BME280;6600;51.362;6.686;2023-04-08T10:48:23;102084.31;;;12.25;92.56
13068;BME280;6600;51.362;6.686;2023-04-08T10:50:57;102085.09;;;12.19;90.66
13068;BME280;6600;51.362;6.686;2023-04-08T10:53:25;102079.94;;;12.45;90.19
13068;BME280;6600;51.362;6.686;2023-04-08T10:55:51;102085.28;;;12.66;89.07
13068;BME280;6600;51.362;6.686;2023-04-08T10:58:16;102089.47;;;12.20;85.79
13068;BME280;6600;51.362;6.686;2023-04-08T11:00:42;102075.63;;;12.23;87.40
13068;BME280;6600;51.362;6.686;2023-04-08T11:03:10;102081.19;;;12.22;88.47
13068;BME280;6600;51.362;6.686;2023-04-08T11:05:36;102080.13;;;12.16;89.48
13068;BME280;6600;51.362;6.686;2023-04-08T11:08:02;102083.81;;;12.36;89.53
13068;BME280;6600;51.362;6.686;2023-04-08T11:10:28;102078.16;;;12.31;89.48
13068;BME280;6600;51.362;6.686;2023-04-08T11:12:54;102076.75;;;12.35;89.18
13068;BME280;6600;51.362;6.686;2023-04-08T11:15:21;102074.72;;;12.37;86.89
13068;BME280;6600;51.362;6.686;2023-04-08T11:17:48;102070.66;;;12.20;84.52
13068;BME280;6600;51.362;6.686;2023-04-08T11:20:13;102066.22;;;12.12;87.11
13068;BME280;6600;51.362;6.686;2023-04-08T11:22:39;102070.88;;;12.04;84.03
13068;BME280;6600;51.362;6.686;2023-04-08T11:25:06;102069.53;;;11.93;84.56
13068;BME280;6600;51.362;6.686;2023-04-08T11:27:34;102072.81;;;11.89;82.68
13068;BME280;6600;51.362;6.686;2023-04-08T11:30:00;102065.34;;;11.84;82.21
13068;BME280;6600;51.362;6.686;2023-04-08T11:32:26;102070.09;;;11.68;82.50
13068;BME280;6600;51.362;6.686;2023-04-08T11:34:53;102064.09;;;11.87;83.56
13068;BME280;6600;51.362;6.686;2023-04-08T11:37:18;102068.75;;;11.93;82.46
13068;BME280;6600;51.362;6.686;2023-04-08T11:39:44;102063.28;;;11.86;80.66
13068;BME280;6600;51.362;6.686;2023-04-08T11:42:30;102069.25;;;11.67;78.83
13068;BME280;6600;51.362;6.686;2023-04-08T11:44:56;102069.63;;;11.79;79.74
13068;BME280;6600;51.362;6.686;2023-04-08T11:47:33;102073.22;;;11.86;80.93
13068;BME280;6600;51.362;6.686;2023-04-08T11:49:59;102073.22;;;11.86;81.33
13068;BME280;6600;51.362;6.686;2023-04-08T11:52:49;102071.28;;;12.01;82.75
13068;BME280;6600;51.362;6.686;2023-04-08T11:55:29;102069.59;;;12.00;82.03
13068;BME280;6600;51.362;6.686;2023-04-08T11:58:01;102077.16;;;12.11;82.67
13068;BME280;6600;51.362;6.686;2023-04-08T12:00:27;102079.47;;;11.93;81.49
13068;BME280;6600;51.362;6.686;2023-04-08T12:02:53;102081.06;;;11.87;81.71
13068;BME280;6600;51.362;6.686;2023-04-08T12:05:18;102085.22;;;11.90;79.50
13068;BME280;6600;51.362;6.686;2023-04-08T12:07:44;102085.16;;;12.04;80.01
13068;BME280;6600;51.362;6.686;2023-04-08T12:10:10;102084.16;;;12.05;79.71
13068;BME280;6600;51.362;6.686;2023-04-08T12:12:36;102079.38;;;11.86;77.44
13068;BME280;6600;51.362;6.686;2023-04-08T12:15:02;102085.88;;;11.92;77.00
13068;BME280;6600;51.362;6.686;2023-04-08T12:17:28;102090.03;;;11.94;77.44
13068;BME280;6600;51.362;6.686;2023-04-08T12:19:53;102091.84;;;11.73;78.07
13068;BME280;6600;51.362;6.686;2023-04-08T12:22:19;102085.84;;;11.71;76.42
13068;BME280;6600;51.362;6.686;2023-04-08T12:24:45;102087.38;;;11.80;78.02
13068;BME280;6600;51.362;6.686;2023-04-08T12:27:10;102092.63;;;11.88;76.84
13068;BME280;6600;51.362;6.686;2023-04-08T12:29:35;102090.84;;;11.95;76.59
13068;BME280;6600;51.362;6.686;2023-04-08T12:32:01;102086.94;;;11.97;77.03
13068;BME280;6600;51.362;6.686;2023-04-08T12:34:28;102091.09;;;12.00;76.61
13068;BME280;6600;51.362;6.686;2023-04-08T12:36:53;102087.72;;;11.91;77.24
13068;BME280;6600;51.362;6.686;2023-04-08T12:39:20;102093.72;;;11.93;77.23
13068;BME280;6600;51.362;6.686;2023-04-08T12:41:46;102091.88;;;11.94;76.91
13068;BME280;6600;51.362;6.686;2023-04-08T12:44:11;102090.53;;;12.04;77.07
13068;BME280;6600;51.362;6.686;2023-04-08T12:46:37;102085.66;;;11.93;78.16
13068;BME280;6600;51.362;6.686;2023-04-08T12:49:02;102090.28;;;11.99;78.47
13068;BME280;6600;51.362;6.686;2023-04-08T12:51:27;102086.78;;;11.99;79.07
13068;BME280;6600;51.362;6.686;2023-04-08T12:53:53;102087.53;;;12.14;78.40
13068;BME280;6600;51.362;6.686;2023-04-08T12:56:19;102086.25;;;12.10;79.33
13068;BME280;6600;51.362;6.686;2023-04-08T12:58:45;102083.31;;;12.05;78.16
13068;BME280;6600;51.362;6.686;2023-04-08T13:01:10;102081.75;;;12.17;79.24
13068;BME280;6600;51.362;6.686;2023-04-08T13:03:36;102081.31;;;12.13;78.70
13068;BME280;6600;51.362;6.686;2023-04-08T13:06:01;102081.41;;;12.20;79.28
13068;BME280;6600;51.362;6.686;2023-04-08T13:08:27;102076.81;;;12.21;78.75
13068;BME280;6600;51.362;6.686;2023-04-08T13:10:53;102083.81;;;12.15;77.66
13068;BME280;6600;51.362;6.686;2023-04-08T13:13:21;102078.78;;;12.54;78.01
13068;BME280;6600;51.362;6.686;2023-04-08T13:15:46;102085.28;;;12.66;78.15